Time;durP1;ratioP1;P1;durP2;ratioP2;P2;SDS_P1;SDS_P2;PMS_P1;PMS_P2;Temp;Humidity;BMP_temperature;BMP_pressure;BME280_temperature;BME280_humidity;BME280_pressure;Samples;Min_cycle;Max_cycle;Signal;HPM_P1;HPM_P2
2022/08/21 00:01:17;;;;;;;5.25;2.65;;;;;;;13.88;100.00;99084.09;5070867;28;20190;-78
2022/08/21 00:03:44;;;;;;;2.88;2.50;;;;;;;13.98;100.00;99081.78;5071411;28;20347;-78
2022/08/21 00:06:11;;;;;;;5.88;2.33;;;;;;;13.99;100.00;99084.31;5082586;28;20044;-78
2022/08/21 00:08:38;;;;;;;5.63;2.60;;;;;;;13.85;100.00;99065.38;5095128;28;20051;-78
2022/08/21 00:11:07;;;;;;;6.55;2.50;;;;;;;13.81;100.00;99086.81;5095464;28;20052;-78
2022/08/21 00:13:34;;;;;;;4.70;2.92;;;;;;;13.63;100.00;99081.97;5094339;28;20105;-78
2022/08/21 00:16:01;;;;;;;6.30;2.45;;;;;;;13.67;100.00;99085.09;5093868;28;20051;-78
2022/08/21 00:18:28;;;;;;;5.20;2.50;;;;;;;13.77;100.00;99088.28;5094948;28;20044;-78
2022/08/21 00:20:54;;;;;;;5.57;2.50;;;;;;;13.55;100.00;99084.88;5085191;28;20047;-78
2022/08/21 00:23:21;;;;;;;5.90;2.53;;;;;;;13.56;100.00;99090.13;5088054;28;20106;-78
2022/08/21 00:25:48;;;;;;;6.15;2.55;;;;;;;13.51;100.00;99087.19;5092494;28;20036;-78
2022/08/21 00:28:16;;;;;;;2.88;2.13;;;;;;;13.61;100.00;99084.06;5094710;28;20106;-78
2022/08/21 00:30:44;;;;;;;4.57;2.38;;;;;;;13.68;100.00;99082.16;5074880;28;20048;-78
2022/08/21 00:33:12;;;;;;;6.93;2.58;;;;;;;13.62;100.00;99080.28;5073317;28;20080;-78
2022/08/21 00:35:41;;;;;;;6.15;2.90;;;;;;;13.51;100.00;99079.00;5074410;28;20098;-78
2022/08/21 00:38:09;;;;;;;4.68;2.53;;;;;;;13.39;100.00;99084.19;5086264;28;20128;-78
2022/08/21 00:40:39;;;;;;;3.90;2.50;;;;;;;13.38;100.00;99084.41;5094158;28;20487;-78
2022/08/21 00:43:08;;;;;;;2.75;2.40;;;;;;;13.42;100.00;99085.69;5093228;28;20077;-78
2022/08/21 00:45:36;;;;;;;6.57;2.80;;;;;;;13.42;100.00;99091.16;5093196;28;20052;-78
2022/08/21 00:48:04;;;;;;;5.72;3.05;;;;;;;13.58;100.00;99079.03;5073153;28;20476;-78
2022/08/21 00:50:35;;;;;;;4.07;2.45;;;;;;;13.45;100.00;99077.09;5073963;28;20052;-78
2022/08/21 00:53:03;;;;;;;9.32;2.97;;;;;;;13.44;100.00;99075.38;5085408;28;20048;-78
2022/08/21 00:55:31;;;;;;;10.38;2.97;;;;;;;13.22;100.00;99058.31;5093998;28;20051;-78
2022/08/21 00:58:00;;;;;;;6.47;2.33;;;;;;;13.15;100.00;99074.63;5093587;28;20067;-78
2022/08/21 01:00:30;;;;;;;3.80;2.30;;;;;;;13.17;100.00;99071.69;5093787;28;20084;-78
2022/08/21 01:03:00;;;;;;;4.32;2.70;;;;;;;13.08;100.00;99073.75;5089683;28;20388;-78
2022/08/21 01:05:27;;;;;;;;;;;;;;;13.02;100.00;99072.72;5079187;28;20065;-78
2022/08/21 01:07:56;;;;;;;3.88;2.50;;;;;;;13.08;100.00;99073.75;5093319;28;19920;-77
2022/08/21 01:10:23;;;;;;;4.95;2.83;;;;;;;13.12;100.00;99068.75;5086727;28;20051;-78
2022/08/21 01:12:51;;;;;;;4.45;2.55;;;;;;;13.22;100.00;99071.94;5084283;28;20048;-78
2022/08/21 01:15:18;;;;;;;4.28;2.63;;;;;;;13.14;100.00;99069.38;5093551;28;20097;-78
2022/08/21 01:17:45;;;;;;;5.20;2.60;;;;;;;13.12;100.00;99071.47;5092498;28;20461;-78
2022/08/21 01:20:13;;;;;;;4.97;2.88;;;;;;;13.05;100.00;99075.03;5090167;28;20388;-78
2022/08/21 01:22:41;;;;;;;4.10;2.42;;;;;;;13.17;100.00;99071.69;5091084;28;20048;-78
2022/08/21 01:25:10;;;;;;;4.53;2.35;;;;;;;13.15;100.00;99061.00;5092551;28;20531;-78
2022/08/21 01:27:37;;;;;;;2.97;2.22;;;;;;;13.13;100.00;99063.09;5084139;28;20055;-78
2022/08/21 01:30:11;;;;;;;5.63;3.22;;;;;;;13.24;100.00;99069.84;5093318;28;20048;-78
2022/08/21 01:32:38;;;;;;;4.68;2.50;;;;;;;13.31;100.00;99078.03;5092374;28;20044;-78
2022/08/21 01:35:06;;;;;;;13.27;3.20;;;;;;;13.18;100.00;99073.41;5090012;28;20090;-78
2022/08/21 01:37:33;;;;;;;2.85;2.65;;;;;;;13.10;100.00;99075.25;5091118;28;20407;-78
2022/08/21 01:40:02;;;;;;;8.10;2.67;;;;;;;13.19;100.00;99077.81;5090141;28;20052;-78
2022/08/21 01:42:28;;;;;;;3.40;2.28;;;;;;;13.25;100.00;99079.72;5090723;28;20185;-78
2022/08/21 01:44:54;;;;;;;3.58;2.38;;;;;;;13.16;100.00;99073.59;5092508;28;20090;-78
2022/08/21 01:47:21;;;;;;;7.13;2.42;;;;;;;13.04;100.00;99078.78;5093016;28;20052;-78
2022/08/21 01:49:47;;;;;;;5.30;2.63;;;;;;;12.91;100.00;99067.81;5090582;28;20388;-78
2022/08/21 01:52:14;;;;;;;4.72;2.60;;;;;;;12.85;100.00;99055.81;5092207;28;20105;-78
2022/08/21 01:54:42;;;;;;;6.18;2.67;;;;;;;12.86;100.00;99067.59;5092828;28;20109;-78
2022/08/21 01:57:11;;;;;;;3.53;2.00;;;;;;;12.86;100.00;99062.13;5090335;28;20525;-78
2022/08/21 01:59:37;;;;;;;2.03;1.83;;;;;;;12.93;100.00;99066.56;5085076;28;20048;-78
2022/08/21 02:02:04;;;;;;;5.72;2.90;;;;;;;12.89;100.00;99061.72;5089703;28;20052;-78
2022/08/21 02:04:31;;;;;;;9.60;2.50;;;;;;;12.78;100.00;99051.38;5092288;28;20048;-78
2022/08/21 02:06:57;;;;;;;3.60;2.55;;;;;;;12.74;100.00;99053.69;5092402;28;20059;-77
2022/08/21 02:09:24;;;;;;;4.45;2.50;;;;;;;12.67;100.00;99056.34;5092494;28;20101;-78
2022/08/21 02:11:51;;;;;;;5.68;2.40;;;;;;;12.70;100.00;99045.03;5091970;28;20040;-78
2022/08/21 02:14:19;;;;;;;2.72;2.10;;;;;;;12.57;100.00;99051.28;5086906;28;20150;-78
2022/08/21 02:16:46;;;;;;;3.60;2.30;;;;;;;12.78;100.00;99052.25;5080485;28;20649;-78
2022/08/21 02:19:15;;;;;;;5.80;2.33;;;;;;;12.75;100.00;99058.06;5091839;28;20073;-78
2022/08/21 02:21:42;;;;;;;3.90;2.28;;;;;;;12.75;100.00;99058.06;5092156;28;20060;-78
2022/08/21 02:24:09;;;;;;;2.97;2.63;;;;;;;12.63;100.00;99049.63;5090303;28;20109;-78
2022/08/21 02:26:36;;;;;;;2.85;2.20;;;;;;;12.57;100.00;99045.00;5092030;28;20052;-78
2022/08/21 02:29:04;;;;;;;5.20;2.47;;;;;;;12.51;100.00;99054.81;5091791;28;20101;-78
2022/08/21 02:31:32;;;;;;;3.78;2.10;;;;;;;12.39;100.00;99043.63;5088147;28;20048;-78
2022/08/21 02:33:59;;;;;;;2.45;2.20;;;;;;;12.37;100.00;99051.16;5082835;28;20050;-78
2022/08/21 02:36:26;;;;;;;4.90;2.75;;;;;;;12.31;100.00;99051.94;5091994;28;20044;-77
2022/08/21 02:38:53;;;;;;;3.92;2.42;;;;;;;12.21;100.00;99048.72;5091495;28;20044;-78
2022/08/21 02:41:21;;;;;;;3.08;2.28;;;;;;;12.24;100.00;99045.59;5092216;28;20044;-78
2022/08/21 02:43:48;;;;;;;4.50;2.25;;;;;;;12.27;100.00;99038.91;5090670;28;20084;-77
2022/08/21 02:46:18;;;;;;;3.72;2.33;;;;;;;12.30;100.00;99039.38;5091755;28;20051;-78
2022/08/21 02:48:47;;;;;;;3.10;2.03;;;;;;;12.26;100.00;99038.06;5086775;28;20040;-77
2022/08/21 02:51:17;;;;;;;6.10;2.35;;;;;;;12.40;100.00;99052.63;5091281;28;20157;-77
2022/08/21 02:53:44;;;;;;;3.22;2.28;;;;;;;12.40;100.00;99052.63;5090793;28;20419;-78
2022/08/21 02:56:13;;;;;;;3.20;2.47;;;;;;;12.30;100.00;99053.00;5091782;28;20059;-78
2022/08/21 02:58:44;;;;;;;3.93;2.30;;;;;;;12.27;100.00;99050.66;5091434;28;20063;-77
2022/08/21 03:01:11;;;;;;;4.35;2.33;;;;;;;12.33;100.00;99051.72;5089646;28;20044;-78
2022/08/21 03:03:38;;;;;;;5.35;2.65;;;;;;;12.31;100.00;99049.19;5088925;28;20064;-78
2022/08/21 03:06:08;;;;;;;3.30;2.45;;;;;;;12.28;100.00;99049.59;5090563;28;20055;-77
2022/08/21 03:08:35;;;;;;;3.17;2.38;;;;;;;12.32;100.00;99050.06;5084035;28;20159;-78
2022/08/21 03:11:01;;;;;;;2.40;1.90;;;;;;;12.17;100.00;99059.16;5091328;28;20052;-78
2022/08/21 03:13:29;;;;;;;3.88;2.17;;;;;;;12.32;100.00;99045.44;5090481;28;20040;-77
2022/08/21 03:15:57;;;;;;;5.45;2.20;;;;;;;12.31;100.00;99049.19;5091036;28;20048;-77
2022/08/21 03:18:23;;;;;;;5.00;2.35;;;;;;;12.21;100.00;99048.72;5086565;28;20052;-77
2022/08/21 03:20:50;;;;;;;2.97;2.10;;;;;;;12.21;100.00;99055.03;5090843;28;20055;-78
2022/08/21 03:23:18;;;;;;;4.22;2.10;;;;;;;12.34;100.00;99048.81;5082533;28;20055;-78
2022/08/21 03:25:47;;;;;;;5.63;2.30;;;;;;;12.17;100.00;99045.53;5090099;28;20048;-77
2022/08/21 03:28:16;;;;;;;9.88;2.30;;;;;;;12.11;100.00;99050.97;5091029;28;20047;-77
2022/08/21 03:30:44;;;;;;;2.53;2.08;;;;;;;12.14;100.00;99050.56;5090887;28;20052;-78
2022/08/21 03:33:11;;;;;;;2.47;1.67;;;;;;;12.07;100.00;99049.66;5086777;28;20052;-78
2022/08/21 03:35:37;;;;;;;3.25;2.10;;;;;;;12.04;100.00;99048.16;5090855;28;20059;-78
2022/08/21 03:38:04;;;;;;;3.58;2.13;;;;;;;12.11;100.00;99053.69;5090994;28;20060;-77
2022/08/21 03:40:32;;;;;;;5.55;2.13;;;;;;;12.09;100.00;99063.91;5079901;28;20052;-77
2022/08/21 03:42:58;;;;;;;3.75;2.20;;;;;;;12.20;100.00;99060.66;5089760;28;20398;-78
2022/08/21 03:45:25;;;;;;;3.65;2.13;;;;;;;12.09;100.00;99053.88;5090778;28;20070;-78
2022/08/21 03:47:55;;;;;;;3.70;2.03;;;;;;;12.04;100.00;99062.66;5089269;28;20117;-78
2022/08/21 03:50:22;;;;;;;3.28;2.40;;;;;;;12.04;100.00;99061.78;5090892;28;20052;-77
2022/08/21 03:52:49;;;;;;;4.22;1.92;;;;;;;11.84;100.00;99061.59;5090740;28;20044;-78
2022/08/21 03:55:15;;;;;;;3.22;2.00;;;;;;;11.77;100.00;99060.69;5091066;28;20062;-78
2022/08/21 03:57:43;;;;;;;6.35;2.17;;;;;;;11.73;100.00;99070.28;5081982;28;20052;-77
2022/08/21 04:00:12;;;;;;;2.53;1.90;;;;;;;11.84;100.00;99065.16;5090525;28;20056;-78
2022/08/21 04:02:38;;;;;;;4.95;1.92;;;;;;;11.87;100.00;99072.94;5088445;28;20169;-78
2022/08/21 04:05:06;;;;;;;4.68;2.05;;;;;;;11.83;100.00;99070.78;5090179;28;20713;-78
2022/08/21 04:07:32;;;;;;;3.63;2.53;;;;;;;11.94;100.00;99073.03;5090483;28;20094;-77
2022/08/21 04:09:59;;;;;;;4.32;2.17;;;;;;;11.98;100.00;99071.63;5090408;28;20256;-77
2022/08/21 04:12:25;;;;;;;2.28;1.70;;;;;;;11.87;100.00;99070.19;5083642;28;20044;-78
2022/08/21 04:14:53;;;;;;;5.60;3.53;;;;;;;11.77;100.00;99079.75;5086450;28;20043;-77
2022/08/21 04:17:20;;;;;;;3.45;2.13;;;;;;;11.68;100.00;99063.56;5090341;28;20541;-77
2022/08/21 04:19:46;;;;;;;3.80;2.05;;;;;;;11.65;100.00;99079.41;5090325;28;20055;-77
2022/08/21 04:22:14;;;;;;;2.55;1.83;;;;;;;11.55;100.00;99084.34;5089713;28;20580;-77
2022/08/21 04:24:40;;;;;;;3.65;1.98;;;;;;;11.42;100.00;99087.78;5089239;28;20461;-77
2022/08/21 04:27:06;;;;;;;3.05;1.90;;;;;;;11.38;100.00;99090.03;5090192;28;20051;-77
2022/08/21 04:29:33;;;;;;;2.70;2.03;;;;;;;11.42;100.00;99098.66;5083482;28;20097;-77
2022/08/21 04:32:01;;;;;;;3.88;2.00;;;;;;;11.44;100.00;99089.28;5088055;28;20052;-77
2022/08/21 04:34:27;;;;;;;2.40;1.95;;;;;;;11.40;100.00;99098.84;5089806;28;20056;-78
2022/08/21 04:36:54;;;;;;;5.57;2.30;;;;;;;11.37;100.00;99104.69;5071283;28;20446;-78
2022/08/21 04:39:20;;;;;;;6.40;2.42;;;;;;;11.39;100.00;99107.22;5070033;28;20048;-78
2022/08/21 04:41:46;;;;;;;5.05;2.30;;;;;;;11.34;100.00;99108.63;5069945;28;20447;-78
2022/08/21 04:44:13;;;;;;;6.50;2.45;;;;;;;11.35;100.00;99109.47;5078802;28;20446;-78
2022/08/21 04:46:39;;;;;;;4.68;2.35;;;;;;;11.40;100.00;99115.19;5084634;28;20097;-78
2022/08/21 04:49:07;;;;;;;5.15;2.05;;;;;;;11.42;100.00;99117.72;5088271;28;20048;-78
2022/08/21 04:51:37;;;;;;;5.05;2.40;;;;;;;11.41;100.00;99114.16;5090519;28;20105;-78
2022/08/21 04:54:09;;;;;;;11.50;2.13;;;;;;;11.60;100.00;99117.28;5092923;28;20056;-77
2022/08/21 04:56:40;;;;;;;4.93;2.17;;;;;;;11.54;100.00;99109.91;5090300;28;20385;-78
2022/08/21 04:59:15;;;;;;;6.38;2.08;;;;;;;11.54;100.00;99108.00;5088945;28;20055;-78
2022/08/21 05:01:41;;;;;;;4.82;2.42;;;;;;;11.55;100.00;99112.41;5093851;28;20130;-78
2022/08/21 05:04:13;;;;;;;4.72;2.30;;;;;;;11.62;100.00;99116.06;5086465;28;20048;-78
2022/08/21 05:06:42;;;;;;;3.67;2.13;;;;;;;11.58;100.00;99119.38;5091942;28;20047;-78
2022/08/21 05:09:10;;;;;;;2.90;2.27;;;;;;;11.61;100.00;99122.53;5093740;28;20063;-78
2022/08/21 05:11:37;;;;;;;3.20;2.25;;;;;;;11.69;100.00;99118.84;5089586;28;20048;-78
2022/08/21 05:14:04;;;;;;;4.40;2.13;;;;;;;11.84;100.00;99121.50;5092429;28;20055;-78
2022/08/21 05:16:31;;;;;;;5.50;2.38;;;;;;;11.98;100.00;99117.06;5093550;28;20048;-78
2022/08/21 05:18:58;;;;;;;3.10;2.10;;;;;;;12.06;100.00;99125.13;5089184;28;20052;-78
2022/08/21 05:21:26;;;;;;;5.00;2.20;;;;;;;12.14;100.00;99130.41;5093209;28;20414;-78
2022/08/21 05:23:52;;;;;;;5.55;2.08;;;;;;;12.04;100.00;99129.91;5089478;28;20055;-78
2022/08/21 05:26:19;;;;;;;13.20;2.72;;;;;;;12.13;100.00;99133.34;5090204;28;20044;-78
2022/08/21 05:28:45;;;;;;;4.55;2.58;;;;;;;12.17;100.00;99131.91;5091100;28;20090;-78
2022/08/21 05:31:12;;;;;;;3.58;2.05;;;;;;;12.26;100.00;99138.91;5092934;28;20048;-78
2022/08/21 05:33:38;;;;;;;4.82;2.40;;;;;;;12.33;100.00;99138.97;5092526;28;20052;-78
2022/08/21 05:36:05;;;;;;;3.03;1.98;;;;;;;12.37;100.00;99143.84;5091364;28;20487;-78
2022/08/21 05:38:33;;;;;;;5.57;2.28;;;;;;;12.47;100.00;99132.59;5092806;28;20074;-78
2022/08/21 05:40:59;;;;;;;5.10;2.35;;;;;;;12.59;100.00;99142.97;5084048;28;20049;-78
2022/08/21 05:43:26;;;;;;;5.47;2.60;;;;;;;12.65;100.00;99137.53;5081717;28;20056;-77
2022/08/21 05:45:52;;;;;;;7.25;3.13;;;;;;;12.79;100.00;99133.00;5093111;28;20106;-78
2022/08/21 05:48:21;;;;;;;8.85;2.30;;;;;;;12.90;100.00;99132.47;5093039;28;20264;-78
2022/08/21 05:50:49;;;;;;;2.83;2.30;;;;;;;13.06;100.00;99133.16;5092678;28;20480;-78
2022/08/21 05:53:17;;;;;;;3.80;2.33;;;;;;;13.11;100.00;99141.59;5083834;28;20488;-78
2022/08/21 05:55:46;;;;;;;3.92;2.70;;;;;;;13.34;100.00;99137.72;5091819;28;20048;-79
2022/08/21 05:58:12;;;;;;;4.00;2.53;;;;;;;13.38;100.00;99134.41;5086480;28;20463;-78
2022/08/21 06:00:39;;;;;;;2.20;2.00;;;;;;;13.60;100.00;99140.56;5091280;28;20056;-78
2022/08/21 06:03:10;;;;;;;8.15;2.58;;;;;;;13.72;100.00;99138.09;5091572;28;20058;-78
2022/08/21 06:05:37;;;;;;;6.13;2.95;;;;;;;14.06;100.00;99130.81;5091557;28;20044;-78
2022/08/21 06:08:04;;;;;;;4.75;2.53;;;;;;;14.60;100.00;99126.19;5092604;28;20069;-77
2022/08/21 06:10:30;;;;;;;6.90;2.85;;;;;;;15.20;100.00;99128.81;5089503;28;20474;-77
2022/08/21 06:12:58;;;;;;;4.95;3.10;;;;;;;15.64;98.06;99137.28;5079115;28;20123;-78
2022/08/21 06:15:25;;;;;;;2.95;2.33;;;;;;;16.18;93.66;99136.97;5090784;28;20097;-78
2022/08/21 06:17:53;;;;;;;7.30;2.75;;;;;;;16.59;90.87;99138.31;5092241;28;20076;-78
2022/08/21 06:20:19;;;;;;;3.97;2.50;;;;;;;16.90;87.79;99139.31;5092035;28;20557;-78
2022/08/21 06:22:46;;;;;;;6.57;2.38;;;;;;;17.14;85.20;99137.59;5091609;28;20048;-77
2022/08/21 06:25:12;;;;;;;4.43;2.42;;;;;;;17.51;82.89;99130.16;5092690;28;20105;-78
2022/08/21 06:27:39;;;;;;;4.82;2.00;;;;;;;17.76;80.34;99126.44;5089941;28;20052;-78
2022/08/21 06:30:08;;;;;;;5.80;2.35;;;;;;;18.01;80.38;99136.50;5089106;28;20048;-77
2022/08/21 06:32:36;;;;;;;3.65;2.28;;;;;;;18.17;80.60;99119.34;5089075;28;20051;-78
2022/08/21 06:35:03;;;;;;;4.32;3.67;;;;;;;18.48;80.10;99133.03;5091927;28;20496;-78
2022/08/21 06:37:30;;;;;;;5.10;2.20;;;;;;;18.52;80.35;99134.22;5085309;28;20051;-78
2022/08/21 06:39:56;;;;;;;2.38;2.10;;;;;;;18.73;79.50;99124.53;5071468;28;20512;-78
2022/08/21 06:42:23;;;;;;;3.78;2.42;;;;;;;19.08;77.22;99120.97;5078724;28;20047;-78
2022/08/21 06:44:50;;;;;;;4.22;2.28;;;;;;;19.23;76.29;99125.97;5083382;28;20075;-77
2022/08/21 06:47:17;;;;;;;3.53;2.13;;;;;;;19.62;74.43;99120.72;5075871;28;20537;-78
2022/08/21 06:49:44;;;;;;;12.93;2.45;;;;;;;19.56;73.14;99116.19;5088757;28;20105;-78
2022/08/21 06:52:11;;;;;;;2.80;2.30;;;;;;;19.77;73.79;99122.94;5088739;28;20056;-79
2022/08/21 06:54:38;;;;;;;3.33;2.20;;;;;;;20.00;73.09;99122.00;5089473;28;20453;-77
2022/08/21 06:57:05;;;;;;;4.43;2.22;;;;;;;19.67;72.10;99117.22;5086933;28;20044;-77
2022/08/21 06:59:32;;;;;;;7.63;2.92;;;;;;;19.53;72.56;99111.16;5089272;28;20079;-78
2022/08/21 07:01:59;;;;;;;4.10;2.10;;;;;;;19.68;72.71;99099.59;5082742;28;20044;-78
2022/08/21 07:04:27;;;;;;;4.72;2.60;;;;;;;20.26;70.02;99114.19;5085096;28;20047;-78
2022/08/21 07:06:54;;;;;;;7.78;3.40;;;;;;;20.07;69.73;99117.16;5089360;28;20051;-78
2022/08/21 07:09:20;;;;;;;4.43;2.28;;;;;;;20.18;68.97;99123.72;5089361;28;20491;-79
2022/08/21 07:11:52;;;;;;;3.78;2.13;;;;;;;19.85;69.93;99108.75;5084142;28;20446;-79
2022/08/21 07:14:19;;;;;;;3.03;2.05;;;;;;;20.15;69.64;99114.00;5088371;28;20389;-78
2022/08/21 07:16:45;;;;;;;6.03;2.33;;;;;;;20.43;69.10;99119.69;5086513;28;20502;-79
2022/08/21 07:19:12;;;;;;;6.70;2.17;;;;;;;20.70;67.99;99117.16;5081674;28;20136;-78
2022/08/21 07:21:40;;;;;;;3.95;1.95;;;;;;;20.67;65.93;99115.72;5087466;28;20047;-79
2022/08/21 07:24:06;;;;;;;7.80;2.28;;;;;;;20.88;66.15;99104.13;5085247;28;20059;-79
2022/08/21 07:26:33;;;;;;;3.35;2.35;;;;;;;21.02;65.36;99116.50;5086233;28;20052;-79
2022/08/21 07:29:00;;;;;;;4.45;2.50;;;;;;;20.72;67.22;99117.72;5088785;28;20059;-79
2022/08/21 07:31:27;;;;;;;7.00;2.28;;;;;;;20.59;66.12;99105.06;5071174;28;20048;-79
2022/08/21 07:33:54;;;;;;;5.57;2.65;;;;;;;20.41;66.45;99117.19;5067066;28;20561;-79
2022/08/21 07:36:22;;;;;;;5.57;2.17;;;;;;;20.57;67.83;99109.19;5075828;28;20583;-79
2022/08/21 07:38:49;;;;;;;6.45;2.78;;;;;;;20.79;66.43;99107.34;5088854;28;20051;-79
2022/08/21 07:41:19;;;;;;;6.60;2.60;;;;;;;20.79;65.52;99110.09;5089146;28;20047;-79
2022/08/21 07:43:46;;;;;;;3.92;2.25;;;;;;;20.60;65.92;99116.94;5087517;28;20530;-79
2022/08/21 07:46:13;;;;;;;6.20;2.60;;;;;;;20.82;64.86;99108.75;5088686;28;20051;-79
2022/08/21 07:48:40;;;;;;;4.47;2.25;;;;;;;20.72;64.47;99101.16;5086479;28;20056;-79
2022/08/21 07:51:11;;;;;;;5.68;2.67;;;;;;;20.68;63.13;99098.06;5088863;28;20052;-79
2022/08/21 07:53:38;;;;;;;7.22;2.60;;;;;;;20.75;61.57;99106.16;5079880;28;20557;-79
2022/08/21 07:56:10;;;;;;;8.05;2.67;;;;;;;20.99;61.06;99097.69;5088205;28;20063;-79
2022/08/21 07:58:37;;;;;;;6.10;2.20;;;;;;;21.03;60.58;99096.06;5088660;28;20056;-79
2022/08/21 08:01:03;;;;;;;7.68;2.92;;;;;;;21.01;60.43;99099.06;5088368;28;20055;-79
2022/08/21 08:03:30;;;;;;;7.53;2.90;;;;;;;21.11;61.51;99092.84;5087025;28;20056;-80
2022/08/21 08:05:58;;;;;;;5.20;3.03;;;;;;;21.22;60.49;99099.34;5072707;28;20466;-79
2022/08/21 08:08:24;;;;;;;9.27;3.38;;;;;;;20.96;59.86;99096.25;5067223;28;20073;-80
2022/08/21 08:10:52;;;;;;;6.25;3.40;;;;;;;21.19;60.50;99097.94;5088198;28;20048;-79
2022/08/21 08:13:20;;;;;;;8.73;2.83;;;;;;;21.35;61.38;99085.16;5067409;28;20500;-79
2022/08/21 08:15:47;;;;;;;8.50;3.63;;;;;;;21.21;60.55;99084.72;5067823;28;20098;-80
2022/08/21 08:18:13;;;;;;;7.95;3.40;;;;;;;21.13;59.67;99087.91;5067906;28;20341;-79
2022/08/21 08:20:40;;;;;;;6.70;3.10;;;;;;;21.21;61.53;99090.22;5082790;28;20475;-79
2022/08/21 08:23:06;;;;;;;9.82;3.53;;;;;;;21.34;62.31;99088.16;5078123;28;20462;-79
2022/08/21 08:25:33;;;;;;;11.07;3.03;;;;;;;21.14;60.55;99080.47;5084828;28;20044;-79
2022/08/21 08:28:00;;;;;;;10.00;3.22;;;;;;;21.17;60.57;99079.94;5090958;28;20532;-79
2022/08/21 08:30:27;;;;;;;5.43;2.90;;;;;;;21.11;60.31;99081.81;5092186;28;20048;-79
2022/08/21 08:32:54;;;;;;;7.68;3.28;;;;;;;21.08;60.38;99070.44;5090501;28;20495;-79
2022/08/21 08:35:21;;;;;;;9.57;3.63;;;;;;;21.37;59.09;99074.66;5092609;28;20051;-79
2022/08/21 08:37:47;;;;;;;8.80;3.33;;;;;;;21.33;58.50;99070.75;5079396;28;20047;-79
2022/08/21 08:40:23;;;;;;;6.65;3.38;;;;;;;21.03;59.53;99060.97;5092302;28;20052;-79
2022/08/21 08:42:50;;;;;;;12.05;3.60;;;;;;;21.44;61.02;99063.41;5088953;28;20090;-80
2022/08/21 08:45:21;;;;;;;10.63;3.58;;;;;;;21.49;60.86;99059.88;5091861;28;20415;-79
2022/08/21 08:47:57;;;;;;;11.30;4.13;;;;;;;21.59;59.97;99061.94;5091295;28;20488;-80
2022/08/21 08:50:29;;;;;;;10.85;3.10;;;;;;;21.70;59.48;99055.44;5092257;28;20503;-79
2022/08/21 08:53:03;;;;;;;11.35;3.25;;;;;;;21.82;59.73;99050.56;5086803;28;20369;-79
2022/08/21 08:55:35;;;;;;;7.07;3.60;;;;;;;21.75;58.37;99049.94;5079545;28;20063;-79
2022/08/21 08:58:03;;;;;;;6.88;3.40;;;;;;;21.65;58.66;99056.22;5089013;28;20044;-79
2022/08/21 09:00:31;;;;;;;12.30;3.67;;;;;;;21.82;57.35;99044.19;5091290;28;20483;-80
2022/08/21 09:03:03;;;;;;;6.32;3.05;;;;;;;21.85;57.00;99055.56;5090214;28;20340;-79
2022/08/21 09:05:39;;;;;;;9.23;3.58;;;;;;;22.00;56.58;99054.06;5091915;28;20127;-79
2022/08/21 09:08:26;;;;;;;7.97;3.63;;;;;;;22.29;58.18;99049.03;5087799;28;20476;-79
2022/08/21 09:11:01;;;;;;;8.85;3.90;;;;;;;22.25;55.19;99050.66;5082788;28;20063;-79
2022/08/21 09:13:43;;;;;;;7.00;3.03;;;;;;;22.27;54.69;99042.94;5090330;28;20109;-79
2022/08/21 09:16:21;;;;;;;6.15;3.50;;;;;;;22.37;54.24;99042.19;5091158;28;20048;-80
2022/08/21 09:18:59;;;;;;;6.63;3.08;;;;;;;22.53;56.01;99046.75;5090568;28;20044;-79
2022/08/21 09:21:36;;;;;;;6.57;3.08;;;;;;;22.56;55.05;99043.44;5091496;28;20487;-79
2022/08/21 09:24:20;;;;;;;8.40;3.28;;;;;;;22.75;55.21;99031.94;5087235;28;20127;-79
2022/08/21 09:26:53;;;;;;;5.03;2.80;;;;;;;22.98;55.02;99030.66;5080009;28;20530;-79
2022/08/21 09:29:24;;;;;;;8.90;3.00;;;;;;;23.07;53.41;99023.50;5090441;28;20346;-79
2022/08/21 09:31:51;;;;;;;7.40;3.65;;;;;;;23.17;53.47;99027.44;5090808;28;20488;-80
2022/08/21 09:34:28;;;;;;;6.38;2.95;;;;;;;23.30;53.34;99029.72;5089462;28;20055;-80
2022/08/21 09:36:55;;;;;;;5.97;2.75;;;;;;;23.42;50.61;99024.75;5085922;28;20484;-79
2022/08/21 09:39:27;;;;;;;6.82;3.03;;;;;;;23.29;50.35;99031.66;5086630;28;20044;-80
2022/08/21 09:41:59;;;;;;;11.57;3.40;;;;;;;23.18;49.64;99024.38;5071960;28;20048;-79
2022/08/21 09:44:28;;;;;;;5.85;2.67;;;;;;;23.09;49.57;99023.22;5088380;28;20172;-79
2022/08/21 09:46:55;;;;;;;9.38;3.50;;;;;;;23.11;48.77;99021.88;5091002;28;20055;-79
2022/08/21 09:49:31;;;;;;;7.68;2.90;;;;;;;23.21;48.59;99021.06;5090265;28;20051;-79
2022/08/21 09:51:59;;;;;;;6.50;2.85;;;;;;;23.25;48.43;99021.38;5088325;28;20038;-79
2022/08/21 09:54:30;;;;;;;6.10;2.80;;;;;;;23.42;47.67;99013.66;5088722;28;20495;-79
2022/08/21 09:59:45;;;;;;;7.75;2.50;;;;;;;23.62;47.76;99000.94;5088377;28;20063;-79
2022/08/21 10:02:24;;;;;;;8.10;3.00;;;;;;;23.61;46.77;99000.09;5090132;28;20052;-79
2022/08/21 10:04:54;;;;;;;9.50;2.40;;;;;;;23.75;45.91;99002.34;5088548;28;20048;-80
2022/08/21 10:07:23;;;;;;;5.93;2.38;;;;;;;23.86;44.54;99004.03;5088687;28;20051;-79
2022/08/21 10:09:59;;;;;;;7.70;2.95;;;;;;;23.86;42.63;98998.50;5070059;28;20106;-79
2022/08/21 10:12:38;;;;;;;8.85;2.50;;;;;;;23.97;43.55;98996.59;5068997;28;20052;-79
2022/08/21 10:15:12;;;;;;;6.90;2.50;;;;;;;24.23;44.90;99000.16;5074050;28;20056;-80
2022/08/21 10:17:50;;;;;;;5.13;2.55;;;;;;;24.35;44.82;98991.53;5089460;28;20044;-79
2022/08/21 10:20:26;;;;;;;10.18;2.78;;;;;;;24.34;44.56;98987.94;5088510;28;20376;-79
2022/08/21 10:23:05;;;;;;;6.55;2.85;;;;;;;24.33;45.23;98989.06;5080010;28;20097;-79
2022/08/21 10:25:38;;;;;;;7.93;2.87;;;;;;;24.34;44.24;98992.66;5089864;28;20476;-80
2022/08/21 10:28:14;;;;;;;7.45;2.70;;;;;;;24.38;45.22;98982.66;5089517;28;20363;-80
2022/08/21 10:30:50;;;;;;;7.03;2.92;;;;;;;24.46;44.06;98982.06;5083936;28;20533;-80
2022/08/21 10:33:26;;;;;;;6.70;2.40;;;;;;;24.56;44.07;98981.22;5086154;28;20493;-80
2022/08/21 10:36:03;;;;;;;7.70;2.90;;;;;;;24.48;42.89;98976.22;5071877;28;20048;-80
2022/08/21 10:38:54;;;;;;;3.70;2.42;;;;;;;24.70;43.76;98971.19;5089728;28;20483;-80
2022/08/21 10:41:32;;;;;;;4.95;2.63;;;;;;;24.82;42.18;98975.63;5089587;28;20568;-80
2022/08/21 10:44:18;;;;;;;6.68;2.88;;;;;;;24.91;42.34;98969.16;5088679;28;20044;-80
2022/08/21 10:46:55;;;;;;;6.38;2.78;;;;;;;25.02;42.13;98966.34;5089900;28;20055;-80
2022/08/21 10:49:28;;;;;;;5.22;3.50;;;;;;;25.09;42.84;98970.47;5080600;28;20044;-80
2022/08/21 10:52:10;;;;;;;6.63;2.83;;;;;;;25.18;42.98;98953.22;5082246;28;20059;-80
2022/08/21 10:54:47;;;;;;;11.18;3.15;;;;;;;25.07;42.72;98955.22;5090238;28;20055;-79
2022/08/21 10:57:23;;;;;;;8.82;3.10;;;;;;;25.30;42.22;98950.94;5089486;28;20333;-80
2022/08/21 10:59:58;;;;;;;7.20;2.90;;;;;;;25.33;42.59;98955.09;5088850;28;20052;-78
2022/08/21 11:02:30;;;;;;;7.63;3.40;;;;;;;25.35;41.54;98959.28;5087042;28;20052;-78
2022/08/21 11:05:02;;;;;;;10.57;3.17;;;;;;;25.03;41.10;98954.13;5083974;28;20135;-79
2022/08/21 11:07:34;;;;;;;6.65;2.80;;;;;;;24.81;42.08;98946.16;5087761;28;20044;-80
2022/08/21 11:10:09;;;;;;;6.35;2.40;;;;;;;25.27;42.90;98957.03;5089027;28;20087;-78
2022/08/21 11:12:42;;;;;;;6.45;2.88;;;;;;;25.49;41.30;98930.78;5088026;28;20055;-80
2022/08/21 11:15:29;;;;;;;3.63;2.13;;;;;;;25.82;41.67;98942.22;5089457;28;20522;-80
2022/08/21 11:18:03;;;;;;;7.85;2.80;;;;;;;25.86;40.50;98941.34;5084910;28;20094;-80
2022/08/21 11:20:34;;;;;;;7.60;2.70;;;;;;;25.49;40.00;98945.53;5087527;28;20052;-79
2022/08/21 11:23:08;;;;;;;5.05;2.63;;;;;;;25.32;40.51;98939.53;5087090;28;20158;-80
2022/08/21 11:25:38;;;;;;;5.88;2.55;;;;;;;25.09;42.21;98937.09;5089083;28;20072;-79
2022/08/21 11:28:10;;;;;;;4.63;2.60;;;;;;;25.65;39.92;98948.22;5088302;28;20458;-79
2022/08/21 11:30:47;;;;;;;7.40;3.08;;;;;;;25.92;39.03;98936.56;5089153;28;20044;-79
2022/08/21 11:33:26;;;;;;;8.55;2.70;;;;;;;26.12;38.04;98936.41;5086042;28;20040;-78
2022/08/21 11:36:03;;;;;;;7.05;2.40;;;;;;;26.23;38.53;98934.34;5068624;28;20048;-78
2022/08/21 11:38:37;;;;;;;6.10;2.60;;;;;;;26.31;36.76;98936.50;5068957;28;20055;-79
2022/08/21 11:41:17;;;;;;;13.80;2.88;;;;;;;26.23;37.53;98927.97;5088016;28;20059;-78